sensor_id;sensor_type;location;lat;lon;timestamp;temperature;humidity
54540;SHT30;40438;52.992;18.604;2023-05-21T00:00:54;16.07;75.53
54540;SHT30;40438;52.992;18.604;2023-05-21T00:03:20;16.07;75.23
54540;SHT30;40438;52.992;18.604;2023-05-21T00:05:47;16.10;74.93
54540;SHT30;40438;52.992;18.604;2023-05-21T00:08:13;16.07;74.88
54540;SHT30;40438;52.992;18.604;2023-05-21T00:10:38;16.09;74.87
54540;SHT30;40438;52.992;18.604;2023-05-21T00:13:04;16.09;74.80
54540;SHT30;40438;52.992;18.604;2023-05-21T00:15:30;16.06;74.76
54540;SHT30;40438;52.992;18.604;2023-05-21T00:17:56;16.10;74.62
54540;SHT30;40438;52.992;18.604;2023-05-21T00:20:21;16.09;74.58
54540;SHT30;40438;52.992;18.604;2023-05-21T00:22:49;16.10;74.56
54540;SHT30;40438;52.992;18.604;2023-05-21T00:25:14;16.07;74.64
54540;SHT30;40438;52.992;18.604;2023-05-21T00:27:40;16.06;74.70
54540;SHT30;40438;52.992;18.604;2023-05-21T00:30:07;15.97;74.84
54540;SHT30;40438;52.992;18.604;2023-05-21T00:32:33;15.97;74.90
54540;SHT30;40438;52.992;18.604;2023-05-21T00:34:58;15.90;75.05
54540;SHT30;40438;52.992;18.604;2023-05-21T00:37:24;15.89;75.06
54540;SHT30;40438;52.992;18.604;2023-05-21T00:39:51;15.87;75.12
54540;SHT30;40438;52.992;18.604;2023-05-21T00:42:17;15.85;75.23
54540;SHT30;40438;52.992;18.604;2023-05-21T00:44:43;15.83;75.31
54540;SHT30;40438;52.992;18.604;2023-05-21T00:47:09;15.82;75.30
54540;SHT30;40438;52.992;18.604;2023-05-21T00:49:35;15.79;75.39
54540;SHT30;40438;52.992;18.604;2023-05-21T00:52:01;15.75;75.57
54540;SHT30;40438;52.992;18.604;2023-05-21T00:54:27;15.70;75.58
54540;SHT30;40438;52.992;18.604;2023-05-21T00:56:54;15.65;75.68
54540;SHT30;40438;52.992;18.604;2023-05-21T00:59:20;15.65;75.67
54540;SHT30;40438;52.992;18.604;2023-05-21T01:01:46;15.68;75.46
54540;SHT30;40438;52.992;18.604;2023-05-21T01:04:12;15.68;75.36
54540;SHT30;40438;52.992;18.604;2023-05-21T01:06:38;15.69;75.16
54540;SHT30;40438;52.992;18.604;2023-05-21T01:09:04;15.69;75.15
54540;SHT30;40438;52.992;18.604;2023-05-21T01:11:36;15.69;75.16
54540;SHT30;40438;52.992;18.604;2023-05-21T01:14:05;15.62;75.36
54540;SHT30;40438;52.992;18.604;2023-05-21T01:16:31;15.59;75.43
54540;SHT30;40438;52.992;18.604;2023-05-21T01:18:57;15.52;75.67
54540;SHT30;40438;52.992;18.604;2023-05-21T01:21:23;15.48;75.70
54540;SHT30;40438;52.992;18.604;2023-05-21T01:23:51;15.48;75.58
54540;SHT30;40438;52.992;18.604;2023-05-21T01:26:17;15.45;75.70
54540;SHT30;40438;52.992;18.604;2023-05-21T01:28:43;15.38;75.84
54540;SHT30;40438;52.992;18.604;2023-05-21T01:31:19;15.37;75.92
54540;SHT30;40438;52.992;18.604;2023-05-21T01:33:49;15.30;76.14
54540;SHT30;40438;52.992;18.604;2023-05-21T01:36:20;15.26;76.21
54540;SHT30;40438;52.992;18.604;2023-05-21T01:38:53;15.21;76.35
54540;SHT30;40438;52.992;18.604;2023-05-21T01:41:23;15.15;76.37
54540;SHT30;40438;52.992;18.604;2023-05-21T01:43:50;15.11;76.62
54540;SHT30;40438;52.992;18.604;2023-05-21T01:46:20;15.04;76.59
54540;SHT30;40438;52.992;18.604;2023-05-21T01:48:48;15.04;76.63
54540;SHT30;40438;52.992;18.604;2023-05-21T01:51:16;15.01;76.73
54540;SHT30;40438;52.992;18.604;2023-05-21T01:53:42;14.97;76.88
54540;SHT30;40438;52.992;18.604;2023-05-21T01:56:09;14.94;76.83
54540;SHT30;40438;52.992;18.604;2023-05-21T01:58:35;14.91;76.95
54540;SHT30;40438;52.992;18.604;2023-05-21T02:01:00;14.86;77.11
54540;SHT30;40438;52.992;18.604;2023-05-21T02:03:27;14.87;77.15
54540;SHT30;40438;52.992;18.604;2023-05-21T02:05:52;14.84;77.19
54540;SHT30;40438;52.992;18.604;2023-05-21T02:08:18;14.79;77.11
54540;SHT30;40438;52.992;18.604;2023-05-21T02:10:44;14.77;77.09
54540;SHT30;40438;52.992;18.604;2023-05-21T02:13:11;14.70;77.15
54540;SHT30;40438;52.992;18.604;2023-05-21T02:15:37;14.65;77.31
54540;SHT30;40438;52.992;18.604;2023-05-21T02:18:03;14.60;77.48
54540;SHT30;40438;52.992;18.604;2023-05-21T02:20:29;14.51;77.45
54540;SHT30;40438;52.992;18.604;2023-05-21T02:22:55;14.51;77.47
54540;SHT30;40438;52.992;18.604;2023-05-21T02:25:20;14.45;77.56
54540;SHT30;40438;52.992;18.604;2023-05-21T02:27:46;14.46;77.56
54540;SHT30;40438;52.992;18.604;2023-05-21T02:30:14;14.46;77.52
54540;SHT30;40438;52.992;18.604;2023-05-21T02:32:40;14.52;77.25
54540;SHT30;40438;52.992;18.604;2023-05-21T02:35:07;14.52;77.05
54540;SHT30;40438;52.992;18.604;2023-05-21T02:37:33;14.62;76.72
54540;SHT30;40438;52.992;18.604;2023-05-21T02:40:00;14.60;76.65
54540;SHT30;40438;52.992;18.604;2023-05-21T02:42:26;14.59;76.62
54540;SHT30;40438;52.992;18.604;2023-05-21T02:44:53;14.58;76.64
54540;SHT30;40438;52.992;18.604;2023-05-21T02:47:23;14.58;76.59
54540;SHT30;40438;52.992;18.604;2023-05-21T02:49:50;14.55;76.48
54540;SHT30;40438;52.992;18.604;2023-05-21T02:52:16;14.56;76.53
54540;SHT30;40438;52.992;18.604;2023-05-21T02:54:41;14.55;76.51
54540;SHT30;40438;52.992;18.604;2023-05-21T02:57:07;14.53;76.44
54540;SHT30;40438;52.992;18.604;2023-05-21T02:59:33;14.52;76.45
54540;SHT30;40438;52.992;18.604;2023-05-21T03:02:00;14.55;76.27
54540;SHT30;40438;52.992;18.604;2023-05-21T03:04:27;14.56;76.22
54540;SHT30;40438;52.992;18.604;2023-05-21T03:06:53;14.59;76.14
54540;SHT30;40438;52.992;18.604;2023-05-21T03:09:19;14.63;75.89
54540;SHT30;40438;52.992;18.604;2023-05-21T03:11:45;14.65;75.83
54540;SHT30;40438;52.992;18.604;2023-05-21T03:14:11;14.63;75.81
54540;SHT30;40438;52.992;18.604;2023-05-21T03:16:36;14.65;75.80
54540;SHT30;40438;52.992;18.604;2023-05-21T03:19:02;14.65;75.83
54540;SHT30;40438;52.992;18.604;2023-05-21T03:21:31;14.66;75.83
54540;SHT30;40438;52.992;18.604;2023-05-21T03:23:56;14.66;75.73
54540;SHT30;40438;52.992;18.604;2023-05-21T03:26:22;14.66;75.70
54540;SHT30;40438;52.992;18.604;2023-05-21T03:28:48;14.70;75.65
54540;SHT30;40438;52.992;18.604;2023-05-21T03:31:14;14.70;75.61
54540;SHT30;40438;52.992;18.604;2023-05-21T03:33:47;14.72;75.64
54540;SHT30;40438;52.992;18.604;2023-05-21T03:36:23;14.75;75.49
54540;SHT30;40438;52.992;18.604;2023-05-21T03:38:50;14.79;75.38
54540;SHT30;40438;52.992;18.604;2023-05-21T03:41:16;14.83;75.31
54540;SHT30;40438;52.992;18.604;2023-05-21T03:43:45;14.83;75.17
54540;SHT30;40438;52.992;18.604;2023-05-21T03:46:11;14.86;75.05
54540;SHT30;40438;52.992;18.604;2023-05-21T03:48:56;14.87;75.14
54540;SHT30;40438;52.992;18.604;2023-05-21T03:51:23;14.89;75.15
54540;SHT30;40438;52.992;18.604;2023-05-21T03:53:51;14.94;75.08
54540;SHT30;40438;52.992;18.604;2023-05-21T03:56:17;15.00;74.93
54540;SHT30;40438;52.992;18.604;2023-05-21T03:58:43;15.03;74.81
54540;SHT30;40438;52.992;18.604;2023-05-21T04:01:09;15.07;74.62
54540;SHT30;40438;52.992;18.604;2023-05-21T04:03:35;15.07;74.52
54540;SHT30;40438;52.992;18.604;2023-05-21T04:06:01;15.12;74.33
54540;SHT30;40438;52.992;18.604;2023-05-21T04:08:27;15.15;74.19
54540;SHT30;40438;52.992;18.604;2023-05-21T04:10:56;15.20;73.98
54540;SHT30;40438;52.992;18.604;2023-05-21T04:13:22;15.21;73.77
54540;SHT30;40438;52.992;18.604;2023-05-21T04:15:47;15.28;73.55
54540;SHT30;40438;52.992;18.604;2023-05-21T04:18:14;15.30;73.38
54540;SHT30;40438;52.992;18.604;2023-05-21T04:20:40;15.34;73.27
54540;SHT30;40438;52.992;18.604;2023-05-21T04:23:06;15.41;72.92
54540;SHT30;40438;52.992;18.604;2023-05-21T04:25:32;15.44;72.74
54540;SHT30;40438;52.992;18.604;2023-05-21T04:27:59;15.47;72.54
54540;SHT30;40438;52.992;18.604;2023-05-21T04:30:25;15.52;72.28
54540;SHT30;40438;52.992;18.604;2023-05-21T04:32:52;15.59;72.02
54540;SHT30;40438;52.992;18.604;2023-05-21T04:35:18;15.62;71.90
54540;SHT30;40438;52.992;18.604;2023-05-21T04:37:43;15.69;71.66
54540;SHT30;40438;52.992;18.604;2023-05-21T04:40:10;15.75;71.60
54540;SHT30;40438;52.992;18.604;2023-05-21T04:42:36;15.76;71.61
54540;SHT30;40438;52.992;18.604;2023-05-21T04:45:05;15.82;71.39
54540;SHT30;40438;52.992;18.604;2023-05-21T04:47:33;15.86;71.05
54540;SHT30;40438;52.992;18.604;2023-05-21T04:50:00;15.91;70.73
54540;SHT30;40438;52.992;18.604;2023-05-21T04:52:26;15.97;70.71
54540;SHT30;40438;52.992;18.604;2023-05-21T04:54:52;16.05;70.51
54540;SHT30;40438;52.992;18.604;2023-05-21T04:57:18;16.10;70.39
54540;SHT30;40438;52.992;18.604;2023-05-21T04:59:44;16.16;70.16
54540;SHT30;40438;52.992;18.604;2023-05-21T05:02:11;16.18;69.91
54540;SHT30;40438;52.992;18.604;2023-05-21T05:04:38;16.27;69.54
54540;SHT30;40438;52.992;18.604;2023-05-21T05:07:04;16.30;69.27
54540;SHT30;40438;52.992;18.604;2023-05-21T05:09:30;16.36;69.29
54540;SHT30;40438;52.992;18.604;2023-05-21T05:11:56;16.41;69.05
54540;SHT30;40438;52.992;18.604;2023-05-21T05:14:23;16.51;68.52
54540;SHT30;40438;52.992;18.604;2023-05-21T05:16:49;16.55;68.52
54540;SHT30;40438;52.992;18.604;2023-05-21T05:19:17;16.65;68.55
54540;SHT30;40438;52.992;18.604;2023-05-21T05:21:43;16.71;68.34
54540;SHT30;40438;52.992;18.604;2023-05-21T05:24:10;16.79;68.22
54540;SHT30;40438;52.992;18.604;2023-05-21T05:26:36;16.85;67.87
54540;SHT30;40438;52.992;18.604;2023-05-21T05:29:01;16.89;67.73
54540;SHT30;40438;52.992;18.604;2023-05-21T05:31:27;16.99;67.04
54540;SHT30;40438;52.992;18.604;2023-05-21T05:33:54;17.00;66.40
54540;SHT30;40438;52.992;18.604;2023-05-21T05:36:22;17.07;66.31
54540;SHT30;40438;52.992;18.604;2023-05-21T05:38:48;17.15;66.10
54540;SHT30;40438;52.992;18.604;2023-05-21T05:41:16;17.23;65.25
54540;SHT30;40438;52.992;18.604;2023-05-21T05:43:42;17.28;64.93
54540;SHT30;40438;52.992;18.604;2023-05-21T05:46:08;17.36;64.90
54540;SHT30;40438;52.992;18.604;2023-05-21T05:48:34;17.40;65.22
54540;SHT30;40438;52.992;18.604;2023-05-21T05:51:00;17.47;64.59
54540;SHT30;40438;52.992;18.604;2023-05-21T05:53:28;17.54;64.40
54540;SHT30;40438;52.992;18.604;2023-05-21T05:55:55;17.60;63.89
54540;SHT30;40438;52.992;18.604;2023-05-21T05:58:22;17.67;63.43
54540;SHT30;40438;52.992;18.604;2023-05-21T06:01:07;17.71;63.77
54540;SHT30;40438;52.992;18.604;2023-05-21T06:03:33;17.77;63.16
54540;SHT30;40438;52.992;18.604;2023-05-21T06:06:09;17.85;63.32
54540;SHT30;40438;52.992;18.604;2023-05-21T06:08:36;17.92;63.64
54540;SHT30;40438;52.992;18.604;2023-05-21T06:11:02;18.01;63.35
54540;SHT30;40438;52.992;18.604;2023-05-21T06:13:28;18.12;62.85
54540;SHT30;40438;52.992;18.604;2023-05-21T06:15:55;18.20;62.75
54540;SHT30;40438;52.992;18.604;2023-05-21T06:18:20;18.30;62.70
54540;SHT30;40438;52.992;18.604;2023-05-21T06:20:46;18.36;62.73
54540;SHT30;40438;52.992;18.604;2023-05-21T06:23:13;18.46;62.66
54540;SHT30;40438;52.992;18.604;2023-05-21T06:25:41;18.49;62.23
54540;SHT30;40438;52.992;18.604;2023-05-21T06:28:07;18.53;61.74
54540;SHT30;40438;52.992;18.604;2023-05-21T06:30:34;18.60;61.76
54540;SHT30;40438;52.992;18.604;2023-05-21T06:32:59;18.71;60.93
54540;SHT30;40438;52.992;18.604;2023-05-21T06:35:25;18.77;61.11
54540;SHT30;40438;52.992;18.604;2023-05-21T06:37:51;18.87;61.55
54540;SHT30;40438;52.992;18.604;2023-05-21T06:40:17;18.96;59.12
54540;SHT30;40438;52.992;18.604;2023-05-21T06:42:46;19.04;58.80
54540;SHT30;40438;52.992;18.604;2023-05-21T06:45:30;19.16;59.71
54540;SHT30;40438;52.992;18.604;2023-05-21T06:48:00;19.22;58.49
54540;SHT30;40438;52.992;18.604;2023-05-21T06:50:26;19.28;57.63
54540;SHT30;40438;52.992;18.604;2023-05-21T06:52:52;19.36;57.24
54540;SHT30;40438;52.992;18.604;2023-05-21T06:55:19;19.42;58.51
54540;SHT30;40438;52.992;18.604;2023-05-21T06:58:21;19.49;58.56
54540;SHT30;40438;52.992;18.604;2023-05-21T07:00:47;19.54;58.10
54540;SHT30;40438;52.992;18.604;2023-05-21T07:03:13;19.62;57.12
54540;SHT30;40438;52.992;18.604;2023-05-21T07:05:39;19.73;55.50
54540;SHT30;40438;52.992;18.604;2023-05-21T07:08:05;19.83;54.85
54540;SHT30;40438;52.992;18.604;2023-05-21T07:10:31;19.91;53.33
54540;SHT30;40438;52.992;18.604;2023-05-21T07:12:57;19.96;54.30
54540;SHT30;40438;52.992;18.604;2023-05-21T07:15:24;20.03;55.03
54540;SHT30;40438;52.992;18.604;2023-05-21T07:17:50;20.07;55.84
54540;SHT30;40438;52.992;18.604;2023-05-21T07:20:16;20.15;56.28
54540;SHT30;40438;52.992;18.604;2023-05-21T07:22:46;20.25;55.86
54540;SHT30;40438;52.992;18.604;2023-05-21T07:25:13;20.33;53.28
54540;SHT30;40438;52.992;18.604;2023-05-21T07:27:39;20.43;51.96
54540;SHT30;40438;52.992;18.604;2023-05-21T07:30:06;20.49;51.49
54540;SHT30;40438;52.992;18.604;2023-05-21T07:32:33;20.59;51.00
54540;SHT30;40438;52.992;18.604;2023-05-21T07:34:59;20.68;50.74
54540;SHT30;40438;52.992;18.604;2023-05-21T07:37:25;20.77;49.56
54540;SHT30;40438;52.992;18.604;2023-05-21T07:39:51;20.84;50.61
54540;SHT30;40438;52.992;18.604;2023-05-21T07:42:17;20.93;48.95
54540;SHT30;40438;52.992;18.604;2023-05-21T07:44:43;20.94;46.92
54540;SHT30;40438;52.992;18.604;2023-05-21T07:47:09;20.96;46.28
54540;SHT30;40438;52.992;18.604;2023-05-21T07:49:36;21.01;45.94
54540;SHT30;40438;52.992;18.604;2023-05-21T07:52:02;21.08;46.14
54540;SHT30;40438;52.992;18.604;2023-05-21T07:54:28;21.22;46.51
54540;SHT30;40438;52.992;18.604;2023-05-21T07:56:54;21.34;47.88
54540;SHT30;40438;52.992;18.604;2023-05-21T07:59:40;21.41;48.59
54540;SHT30;40438;52.992;18.604;2023-05-21T08:02:06;21.45;47.60
54540;SHT30;40438;52.992;18.604;2023-05-21T08:04:32;21.61;47.96
54540;SHT30;40438;52.992;18.604;2023-05-21T08:07:03;21.71;48.33
54540;SHT30;40438;52.992;18.604;2023-05-21T08:09:29;21.80;47.48
54540;SHT30;40438;52.992;18.604;2023-05-21T08:11:54;21.90;46.42
54540;SHT30;40438;52.992;18.604;2023-05-21T08:14:20;22.02;45.82
54540;SHT30;40438;52.992;18.604;2023-05-21T08:16:47;22.08;47.07
54540;SHT30;40438;52.992;18.604;2023-05-21T08:19:13;22.06;46.42
54540;SHT30;40438;52.992;18.604;2023-05-21T08:21:39;22.12;45.42
54540;SHT30;40438;52.992;18.604;2023-05-21T08:24:06;22.26;45.62
54540;SHT30;40438;52.992;18.604;2023-05-21T08:26:32;22.30;44.43
54540;SHT30;40438;52.992;18.604;2023-05-21T08:28:58;22.37;43.73
54540;SHT30;40438;52.992;18.604;2023-05-21T08:31:23;22.47;43.82
54540;SHT30;40438;52.992;18.604;2023-05-21T08:33:50;22.54;44.09
54540;SHT30;40438;52.992;18.604;2023-05-21T08:36:19;22.64;43.86
54540;SHT30;40438;52.992;18.604;2023-05-21T08:38:51;22.60;40.11
54540;SHT30;40438;52.992;18.604;2023-05-21T08:41:34;22.65;42.35
54540;SHT30;40438;52.992;18.604;2023-05-21T08:44:01;22.72;42.34
54540;SHT30;40438;52.992;18.604;2023-05-21T08:46:28;22.82;42.22
54540;SHT30;40438;52.992;18.604;2023-05-21T08:48:58;22.85;43.47
54540;SHT30;40438;52.992;18.604;2023-05-21T08:51:25;22.92;42.85
54540;SHT30;40438;52.992;18.604;2023-05-21T08:53:51;23.03;42.93
54540;SHT30;40438;52.992;18.604;2023-05-21T08:56:20;23.05;41.88
54540;SHT30;40438;52.992;18.604;2023-05-21T08:58:58;23.18;40.93
54540;SHT30;40438;52.992;18.604;2023-05-21T09:01:27;23.23;39.59
54540;SHT30;40438;52.992;18.604;2023-05-21T09:04:05;23.18;40.79
54540;SHT30;40438;52.992;18.604;2023-05-21T09:06:31;23.29;40.49
54540;SHT30;40438;52.992;18.604;2023-05-21T09:09:01;23.29;41.81
54540;SHT30;40438;52.992;18.604;2023-05-21T09:11:43;23.32;42.91
54540;SHT30;40438;52.992;18.604;2023-05-21T09:14:12;23.39;39.61
54540;SHT30;40438;52.992;18.604;2023-05-21T09:16:55;23.39;40.53
54540;SHT30;40438;52.992;18.604;2023-05-21T09:19:21;23.43;40.58
54540;SHT30;40438;52.992;18.604;2023-05-21T09:21:49;23.46;41.33
54540;SHT30;40438;52.992;18.604;2023-05-21T09:24:20;23.45;40.18
54540;SHT30;40438;52.992;18.604;2023-05-21T09:26:46;23.56;42.17
54540;SHT30;40438;52.992;18.604;2023-05-21T09:29:13;23.68;39.98
54540;SHT30;40438;52.992;18.604;2023-05-21T09:31:42;23.66;38.22
54540;SHT30;40438;52.992;18.604;2023-05-21T09:34:08;23.66;38.09
54540;SHT30;40438;52.992;18.604;2023-05-21T09:36:36;23.83;40.08
54540;SHT30;40438;52.992;18.604;2023-05-21T09:39:03;23.98;39.82
54540;SHT30;40438;52.992;18.604;2023-05-21T09:41:30;24.01;38.59
54540;SHT30;40438;52.992;18.604;2023-05-21T09:43:58;24.15;40.84
54540;SHT30;40438;52.992;18.604;2023-05-21T09:46:26;24.21;40.84
54540;SHT30;40438;52.992;18.604;2023-05-21T09:48:52;24.43;40.82
54540;SHT30;40438;52.992;18.604;2023-05-21T09:51:19;24.66;38.93
54540;SHT30;40438;52.992;18.604;2023-05-21T09:53:49;24.88;38.39
54540;SHT30;40438;52.992;18.604;2023-05-21T09:56:16;25.04;37.68
54540;SHT30;40438;52.992;18.604;2023-05-21T09:58:43;25.37;38.76
54540;SHT30;40438;52.992;18.604;2023-05-21T10:01:09;25.63;36.69
54540;SHT30;40438;52.992;18.604;2023-05-21T10:03:38;25.93;36.74
54540;SHT30;40438;52.992;18.604;2023-05-21T10:06:05;26.17;36.80
54540;SHT30;40438;52.992;18.604;2023-05-21T10:08:34;26.23;36.38
54540;SHT30;40438;52.992;18.604;2023-05-21T10:11:00;26.45;37.01
54540;SHT30;40438;52.992;18.604;2023-05-21T10:13:27;26.54;36.00
54540;SHT30;40438;52.992;18.604;2023-05-21T10:15:57;26.81;36.94
54540;SHT30;40438;52.992;18.604;2023-05-21T10:18:24;26.92;35.44
54540;SHT30;40438;52.992;18.604;2023-05-21T10:20:52;26.99;35.64
54540;SHT30;40438;52.992;18.604;2023-05-21T10:23:18;27.05;36.21
54540;SHT30;40438;52.992;18.604;2023-05-21T10:25:45;26.98;35.51
54540;SHT30;40438;52.992;18.604;2023-05-21T10:28:15;27.05;35.26
54540;SHT30;40438;52.992;18.604;2023-05-21T10:30:41;27.12;35.04
54540;SHT30;40438;52.992;18.604;2023-05-21T10:33:07;27.30;35.38
54540;SHT30;40438;52.992;18.604;2023-05-21T10:35:33;27.34;35.77
54540;SHT30;40438;52.992;18.604;2023-05-21T10:38:01;27.42;35.24
54540;SHT30;40438;52.992;18.604;2023-05-21T10:40:28;27.33;34.62
54540;SHT30;40438;52.992;18.604;2023-05-21T10:46:14;27.50;35.94
54540;SHT30;40438;52.992;18.604;2023-05-21T10:48:53;27.56;33.42
54540;SHT30;40438;52.992;18.604;2023-05-21T10:51:25;27.66;35.87
54540;SHT30;40438;52.992;18.604;2023-05-21T10:57:02;27.47;35.48
54540;SHT30;40438;52.992;18.604;2023-05-21T10:59:38;27.27;32.54
54540;SHT30;40438;52.992;18.604;2023-05-21T11:02:05;27.24;34.29
54540;SHT30;40438;52.992;18.604;2023-05-21T11:04:32;27.20;34.64
54540;SHT30;40438;52.992;18.604;2023-05-21T11:06:58;27.27;35.05
54540;SHT30;40438;52.992;18.604;2023-05-21T11:09:23;27.23;33.38
54540;SHT30;40438;52.992;18.604;2023-05-21T11:11:50;27.10;32.35
54540;SHT30;40438;52.992;18.604;2023-05-21T11:14:31;27.09;33.52
54540;SHT30;40438;52.992;18.604;2023-05-21T11:16:58;27.12;33.29
54540;SHT30;40438;52.992;18.604;2023-05-21T11:19:33;27.16;35.46
54540;SHT30;40438;52.992;18.604;2023-05-21T11:21:58;27.15;32.83
54540;SHT30;40438;52.992;18.604;2023-05-21T11:24:24;27.18;33.75
54540;SHT30;40438;52.992;18.604;2023-05-21T11:27:00;27.19;34.44
54540;SHT30;40438;52.992;18.604;2023-05-21T11:29:36;27.33;33.88
54540;SHT30;40438;52.992;18.604;2023-05-21T11:32:02;27.34;34.49
54540;SHT30;40438;52.992;18.604;2023-05-21T11:34:35;27.39;34.62
54540;SHT30;40438;52.992;18.604;2023-05-21T11:37:24;27.51;32.93
54540;SHT30;40438;52.992;18.604;2023-05-21T11:39:51;27.61;32.83
54540;SHT30;40438;52.992;18.604;2023-05-21T11:42:27;27.53;32.91
54540;SHT30;40438;52.992;18.604;2023-05-21T11:44:55;27.74;32.42
54540;SHT30;40438;52.992;18.604;2023-05-21T11:47:22;27.84;32.67
54540;SHT30;40438;52.992;18.604;2023-05-21T11:49:48;27.81;32.63
54540;SHT30;40438;52.992;18.604;2023-05-21T11:52:14;27.82;31.00
54540;SHT30;40438;52.992;18.604;2023-05-21T11:54:41;27.84;32.34
54540;SHT30;40438;52.992;18.604;2023-05-21T11:57:08;27.87;31.72
54540;SHT30;40438;52.992;18.604;2023-05-21T11:59:34;27.91;31.26
54540;SHT30;40438;52.992;18.604;2023-05-21T12:02:02;27.94;31.44
54540;SHT30;40438;52.992;18.604;2023-05-21T12:04:28;28.14;31.39
54540;SHT30;40438;52.992;18.604;2023-05-21T12:06:54;28.24;30.58
54540;SHT30;40438;52.992;18.604;2023-05-21T12:09:20;28.46;31.33
54540;SHT30;40438;52.992;18.604;2023-05-21T12:11:46;28.47;30.41
54540;SHT30;40438;52.992;18.604;2023-05-21T12:14:12;28.57;30.54
54540;SHT30;40438;52.992;18.604;2023-05-21T12:16:39;28.50;29.34
54540;SHT30;40438;52.992;18.604;2023-05-21T12:19:06;28.49;29.65
54540;SHT30;40438;52.992;18.604;2023-05-21T12:21:32;28.52;29.74
54540;SHT30;40438;52.992;18.604;2023-05-21T12:23:58;28.28;28.54
54540;SHT30;40438;52.992;18.604;2023-05-21T12:26:24;28.16;29.77
54540;SHT30;40438;52.992;18.604;2023-05-21T12:28:50;28.19;29.38
54540;SHT30;40438;52.992;18.604;2023-05-21T12:31:16;28.21;30.25
54540;SHT30;40438;52.992;18.604;2023-05-21T12:33:43;28.07;26.24
54540;SHT30;40438;52.992;18.604;2023-05-21T12:36:20;28.22;26.22
54540;SHT30;40438;52.992;18.604;2023-05-21T12:38:46;28.21;28.00
54540;SHT30;40438;52.992;18.604;2023-05-21T12:41:12;28.26;28.70
54540;SHT30;40438;52.992;18.604;2023-05-21T12:43:38;28.33;28.17
54540;SHT30;40438;52.992;18.604;2023-05-21T12:46:04;28.22;28.34
54540;SHT30;40438;52.992;18.604;2023-05-21T12:48:30;28.24;28.92
54540;SHT30;40438;52.992;18.604;2023-05-21T12:50:57;27.98;28.23
54540;SHT30;40438;52.992;18.604;2023-05-21T12:53:35;27.89;27.87
54540;SHT30;40438;52.992;18.604;2023-05-21T12:56:07;27.77;29.16
54540;SHT30;40438;52.992;18.604;2023-05-21T12:58:33;27.54;26.65
54540;SHT30;40438;52.992;18.604;2023-05-21T13:00:59;27.82;26.19
54540;SHT30;40438;52.992;18.604;2023-05-21T13:03:25;27.76;25.78
54540;SHT30;40438;52.992;18.604;2023-05-21T13:05:57;27.88;26.70
54540;SHT30;40438;52.992;18.604;2023-05-21T13:08:26;27.87;27.79
54540;SHT30;40438;52.992;18.604;2023-05-21T13:10:52;27.81;27.69
54540;SHT30;40438;52.992;18.604;2023-05-21T13:13:17;27.66;28.54
54540;SHT30;40438;52.992;18.604;2023-05-21T13:15:43;27.54;28.45
54540;SHT30;40438;52.992;18.604;2023-05-21T13:18:09;27.42;29.70
54540;SHT30;40438;52.992;18.604;2023-05-21T13:20:35;27.46;29.05
54540;SHT30;40438;52.992;18.604;2023-05-21T13:23:01;27.29;30.20
54540;SHT30;40438;52.992;18.604;2023-05-21T13:25:28;27.24;29.83
54540;SHT30;40438;52.992;18.604;2023-05-21T13:27:54;27.34;30.11
54540;SHT30;40438;52.992;18.604;2023-05-21T13:30:21;27.51;30.21
54540;SHT30;40438;52.992;18.604;2023-05-21T13:32:47;27.58;29.77
54540;SHT30;40438;52.992;18.604;2023-05-21T13:35:13;27.70;30.15
54540;SHT30;40438;52.992;18.604;2023-05-21T13:37:39;27.95;29.48
54540;SHT30;40438;52.992;18.604;2023-05-21T13:40:06;28.11;29.06
54540;SHT30;40438;52.992;18.604;2023-05-21T13:42:34;28.18;28.37
54540;SHT30;40438;52.992;18.604;2023-05-21T13:45:00;28.29;27.50
54540;SHT30;40438;52.992;18.604;2023-05-21T13:47:25;28.15;28.41
54540;SHT30;40438;52.992;18.604;2023-05-21T13:49:51;28.21;28.77
54540;SHT30;40438;52.992;18.604;2023-05-21T13:52:18;28.32;28.22
54540;SHT30;40438;52.992;18.604;2023-05-21T13:54:44;28.45;27.69
54540;SHT30;40438;52.992;18.604;2023-05-21T13:57:10;28.84;27.59
54540;SHT30;40438;52.992;18.604;2023-05-21T13:59:37;28.73;28.28
54540;SHT30;40438;52.992;18.604;2023-05-21T14:02:03;29.18;27.17
54540;SHT30;40438;52.992;18.604;2023-05-21T14:04:28;29.04;28.29
54540;SHT30;40438;52.992;18.604;2023-05-21T14:06:54;28.93;27.99
54540;SHT30;40438;52.992;18.604;2023-05-21T14:09:20;28.88;27.60
54540;SHT30;40438;52.992;18.604;2023-05-21T14:11:46;28.83;27.21
54540;SHT30;40438;52.992;18.604;2023-05-21T14:14:11;28.93;26.95
54540;SHT30;40438;52.992;18.604;2023-05-21T14:16:39;29.00;27.32
54540;SHT30;40438;52.992;18.604;2023-05-21T14:19:04;29.07;27.64
54540;SHT30;40438;52.992;18.604;2023-05-21T14:21:30;29.24;26.64
54540;SHT30;40438;52.992;18.604;2023-05-21T14:23:56;29.59;26.51
54540;SHT30;40438;52.992;18.604;2023-05-21T14:26:22;29.46;25.57
54540;SHT30;40438;52.992;18.604;2023-05-21T14:28:47;29.42;26.98
54540;SHT30;40438;52.992;18.604;2023-05-21T14:31:13;29.32;26.73
54540;SHT30;40438;52.992;18.604;2023-05-21T14:33:41;29.18;26.73
54540;SHT30;40438;52.992;18.604;2023-05-21T14:36:07;29.20;26.83
54540;SHT30;40438;52.992;18.604;2023-05-21T14:38:32;29.38;26.64
54540;SHT30;40438;52.992;18.604;2023-05-21T14:40:58;29.46;27.69
54540;SHT30;40438;52.992;18.604;2023-05-21T14:43:24;29.25;26.01
54540;SHT30;40438;52.992;18.604;2023-05-21T14:45:50;29.25;26.73
54540;SHT30;40438;52.992;18.604;2023-05-21T14:48:16;29.28;27.49
54540;SHT30;40438;52.992;18.604;2023-05-21T14:50:43;29.39;27.00
54540;SHT30;40438;52.992;18.604;2023-05-21T14:53:10;29.38;26.76
54540;SHT30;40438;52.992;18.604;2023-05-21T14:55:36;29.10;26.15
54540;SHT30;40438;52.992;18.604;2023-05-21T14:58:03;29.39;26.73
54540;SHT30;40438;52.992;18.604;2023-05-21T15:00:28;29.07;27.03
54540;SHT30;40438;52.992;18.604;2023-05-21T15:02:54;29.00;26.96
54540;SHT30;40438;52.992;18.604;2023-05-21T15:05:20;29.08;26.72
54540;SHT30;40438;52.992;18.604;2023-05-21T15:07:47;29.05;26.37
54540;SHT30;40438;52.992;18.604;2023-05-21T15:10:13;28.70;27.08
54540;SHT30;40438;52.992;18.604;2023-05-21T15:12:39;28.98;26.73
54540;SHT30;40438;52.992;18.604;2023-05-21T15:15:06;29.27;25.41
54540;SHT30;40438;52.992;18.604;2023-05-21T15:17:32;29.45;26.00
54540;SHT30;40438;52.992;18.604;2023-05-21T15:19:58;29.51;26.28
54540;SHT30;40438;52.992;18.604;2023-05-21T15:22:24;29.38;26.04